NZAA/AKL METAR and TAF weather

Enter ICAO airport designator
Station Type Date Time Source
NZAA METAR 2021/07/29 17:00 UTC NOAA

NZAA 291700Z AUTO 07001KT 9999 BKN008/// 10/09 Q1016 TEMPO 0500 FG


Station Type Date Time Source
NZAA Decoded METAR 2021/07/29 17:00 UTC NOAA

Auckland Airport, New Zealand (NZAA) 37-01S 174-48E 6M
Jul 29, 2021 - 01:00 PM EDT / 2021.07.29 1700 UTC
Wind: from the ENE (070 degrees) at 1 MPH (1 KT):0
Visibility: greater than 7 mile(s):0
Sky conditions: mostly cloudy
Temperature: 50 F (10 C)
Dew Point: 48 F (9 C)
Relative Humidity: 93%
Pressure (altimeter): 30.00 in. Hg (1016 hPa)
ob: NZAA 291700Z AUTO 07001KT 9999 BKN008/// 10/09 Q1016 TEMPO 0500 FG
cycle: 17

Station Type Date Time Source
NZAA TAF 2021/07/29 18:05 UTC NOAA

TAF NZAA 291702Z 2918/3018 VRB02KT 9999 -SHRA BKN008 PROB40 2918/2922 0500 FG
BECMG 2920/2922 SCT030
TEMPO 2922/3002 7000 SHRA BKN012
BECMG 3000/3002 03010KT

Example: see airport list